Time;durP1;ratioP1;P1;durP2;ratioP2;P2;SDS_P1;SDS_P2;PMS_P1;PMS_P2;Temp;Humidity;BMP_temperature;BMP_pressure;BME280_temperature;BME280_humidity;BME280_pressure;Samples;Min_cycle;Max_cycle;Signal;HPM_P1;HPM_P2
2023/04/24 00:00:32;;;;;;;27.90;14.57;;;;;;;14.60;100.00;99661.80;5116887;56;1143029;-77
2023/04/24 00:05:40;;;;;;;24.47;12.93;;;;;;;14.70;100.00;99655.80;5123098;56;1142856;-78
2023/04/24 00:10:46;;;;;;;25.83;14.00;;;;;;;14.73;100.00;99656.81;5042470;57;1142874;-78
2023/04/24 00:15:51;;;;;;;30.23;14.97;;;;;;;14.70;100.00;99646.48;5042342;57;1143276;-78
2023/04/24 00:20:57;;;;;;;22.73;12.43;;;;;;;14.71;100.00;99645.00;5062273;57;1142854;-78
2023/04/24 00:26:03;;;;;;;24.80;14.57;;;;;;;14.73;100.00;99640.34;5042161;57;1143024;-78
2023/04/24 00:31:08;;;;;;;20.72;14.93;;;;;;;14.73;100.00;99626.20;5038811;56;1225261;-78
2023/04/24 00:36:14;;;;;;;22.93;13.33;;;;;;;14.67;100.00;99625.52;5057696;57;1142830;-78
2023/04/24 00:41:20;;;;;;;18.03;13.67;;;;;;;14.67;100.00;99626.86;5006753;57;1175737;-78
2023/04/24 00:46:26;;;;;;;22.43;13.57;;;;;;;14.75;100.00;99629.53;4999339;57;1219690;-77
2023/04/24 00:51:32;;;;;;;44.43;22.33;;;;;;;14.61;100.00;99624.38;5009006;57;1143077;-78
2023/04/24 00:56:38;;;;;;;27.60;17.32;;;;;;;14.57;100.00;99620.37;5028528;57;1143066;-78
2023/04/24 01:01:45;;;;;;;35.48;19.12;;;;;;;14.61;100.00;99625.72;5008683;57;1142771;-78
2023/04/24 01:06:51;;;;;;;31.30;16.90;;;;;;;14.34;100.00;99620.19;5004578;57;1143073;-78
2023/04/24 01:11:57;;;;;;;30.73;17.33;;;;;;;14.27;100.00;99615.18;5017693;58;1183851;-78
2023/04/24 01:17:03;;;;;;;34.63;17.87;;;;;;;14.40;100.00;99608.06;4998792;57;1143105;-77
2023/04/24 01:22:18;;;;;;;32.00;17.83;;;;;;;14.50;100.00;99622.06;4999385;57;1143031;-78
2023/04/24 01:27:23;;;;;;;28.98;17.07;;;;;;;14.58;100.00;99622.05;5015602;57;1230011;-78
2023/04/24 01:32:29;;;;;;;25.67;15.50;;;;;;;14.56;100.00;99615.22;4992889;57;1235346;-76
2023/04/24 01:37:37;;;;;;;24.72;15.48;;;;;;;14.58;100.00;99611.91;4994781;57;1143060;-77
2023/04/24 01:42:43;;;;;;;26.30;17.17;;;;;;;14.52;100.00;99608.06;5003303;57;1143120;-77
2023/04/24 01:47:51;;;;;;;22.67;14.40;;;;;;;14.48;100.00;99608.59;5070643;56;1142821;-77
2023/04/24 01:52:56;;;;;;;20.07;12.27;;;;;;;14.42;100.00;99600.76;5066777;56;1142900;-77
2023/04/24 01:58:02;;;;;;;21.97;11.77;;;;;;;14.38;100.00;99593.56;5065625;56;1143023;-78
2023/04/24 02:03:08;;;;;;;17.60;11.57;;;;;;;14.40;100.00;99595.59;5086291;57;1142938;-78
2023/04/24 02:08:14;;;;;;;19.07;13.23;;;;;;;14.39;100.00;99591.73;5028772;57;1142909;-78
2023/04/24 02:13:19;;;;;;;19.30;12.77;;;;;;;14.37;100.00;99580.43;5012652;57;1142856;-77
2023/04/24 02:18:25;;;;;;;17.45;12.37;;;;;;;14.33;100.00;99577.79;5032691;57;1143288;-78
2023/04/24 02:23:31;;;;;;;17.65;12.70;;;;;;;14.31;100.00;99577.13;5022050;57;1146023;-79
2023/04/24 02:28:37;;;;;;;16.73;12.82;;;;;;;14.22;100.00;99585.58;4989907;57;1237746;-78
2023/04/24 02:33:42;;;;;;;16.37;12.58;;;;;;;14.13;100.00;99582.59;5009093;57;1142962;-78
2023/04/24 02:38:48;;;;;;;17.12;11.35;;;;;;;14.07;100.00;99588.05;5028729;57;1142957;-77
2023/04/24 02:43:54;;;;;;;14.90;10.37;;;;;;;14.06;100.00;99578.91;5001372;57;1234318;-76
2023/04/24 02:48:59;;;;;;;19.43;12.20;;;;;;;14.05;100.00;99578.08;5006662;57;1246429;-77
2023/04/24 02:54:05;;;;;;;15.63;11.33;;;;;;;13.98;100.00;99559.80;5028869;57;1143791;-75
2023/04/24 02:59:11;;;;;;;17.93;11.77;;;;;;;13.94;100.00;99547.83;5008810;57;1142963;-75
2023/04/24 03:04:20;;;;;;;16.10;11.00;;;;;;;13.94;100.00;99537.20;5035348;56;1142961;-76
2023/04/24 03:09:24;;;;;;;13.90;9.57;;;;;;;13.93;100.00;99544.84;5028056;57;1143040;-74
2023/04/24 03:14:31;;;;;;;16.73;11.20;;;;;;;13.83;100.00;99532.20;5008880;57;1140855;-72
2023/04/24 03:19:36;;;;;;;15.87;11.20;;;;;;;13.77;100.00;99522.22;4997511;57;1142944;-73
2023/04/24 03:24:44;;;;;;;20.45;10.55;;;;;;;13.67;100.00;99527.69;4994383;57;1143128;-73
2023/04/24 03:29:54;;;;;;;13.35;9.28;;;;;;;13.64;100.00;99533.81;5014295;57;1142881;-73
2023/04/24 03:34:58;;;;;;;13.27;8.90;;;;;;;13.65;100.00;99534.16;5001658;57;1230082;-74
2023/04/24 03:40:05;;;;;;;15.17;9.80;;;;;;;13.76;100.00;99532.52;5077310;56;1140838;-74
2023/04/24 03:45:13;;;;;;;14.05;10.23;;;;;;;13.92;100.00;99524.56;5086996;56;1140886;-75
2023/04/24 03:50:20;;;;;;;13.57;10.90;;;;;;;13.99;100.00;99518.94;5007122;57;1239484;-73
2023/04/24 03:55:26;;;;;;;13.87;10.50;;;;;;;13.98;100.00;99511.13;5009065;57;1164884;-73
2023/04/24 04:00:32;;;;;;;12.37;10.70;;;;;;;13.99;100.00;99516.77;5009033;57;1163209;-72
2023/04/24 04:05:39;;;;;;;15.10;10.43;;;;;;;13.97;100.00;99507.63;5026446;57;1142925;-73
2023/04/24 04:10:46;;;;;;;20.20;13.00;;;;;;;13.91;100.00;99496.81;4999063;57;1143011;-74
2023/04/24 04:15:51;;;;;;;18.27;13.05;;;;;;;13.91;100.00;99488.34;4997468;57;1143069;-74
2023/04/24 04:20:57;;;;;;;19.93;11.67;;;;;;;13.84;100.00;99478.05;5014410;57;1142882;-72
2023/04/24 04:26:04;;;;;;;20.70;11.97;;;;;;;13.80;100.00;99470.56;4994521;57;1142838;-73
2023/04/24 04:31:12;;;;;;;15.30;10.83;;;;;;;13.75;100.00;99472.91;5001172;57;1143056;-72
2023/04/24 04:36:18;;;;;;;22.13;11.80;;;;;;;13.77;100.00;99470.39;5028366;57;1142992;-74
2023/04/24 04:41:26;;;;;;;17.93;11.63;;;;;;;13.71;100.00;99466.59;5009096;57;1143395;-73
2023/04/24 04:46:37;;;;;;;17.07;9.80;;;;;;;13.65;100.00;99476.53;5043725;56;1143009;-73
2023/04/24 04:51:47;;;;;;;15.55;9.98;;;;;;;13.66;100.00;99487.50;5125617;56;1140915;-74
2023/04/24 04:56:53;;;;;;;15.50;9.37;;;;;;;13.78;100.00;99488.50;5147162;56;1141023;-74
2023/04/24 05:01:59;;;;;;;11.53;9.83;;;;;;;13.88;100.00;99488.70;5127079;55;1140807;-74
2023/04/24 05:07:06;;;;;;;17.87;11.43;;;;;;;14.01;100.00;99483.72;5087319;55;1140808;-73
2023/04/24 05:12:13;;;;;;;15.63;10.50;;;;;;;14.01;100.00;99466.93;5025217;56;1142963;-73
2023/04/24 05:17:20;;;;;;;16.13;9.77;;;;;;;13.95;100.00;99450.30;5036809;56;1142964;-73
2023/04/24 05:22:26;;;;;;;13.60;8.50;;;;;;;13.90;100.00;99444.68;5038102;56;1140792;-74
2023/04/24 05:27:32;;;;;;;13.63;9.40;;;;;;;13.90;100.00;99456.64;5041221;57;1140918;-74
2023/04/24 05:32:39;;;;;;;12.63;8.75;;;;;;;13.87;100.00;99466.27;5122389;56;1140970;-75
2023/04/24 05:37:44;;;;;;;13.05;9.25;;;;;;;13.82;100.00;99464.59;5116898;55;1141190;-73
2023/04/24 05:42:50;;;;;;;11.03;8.23;;;;;;;13.80;100.00;99463.92;5103991;56;1141068;-75
2023/04/24 05:47:56;;;;;;;12.67;8.83;;;;;;;13.80;100.00;99454.13;5141177;55;1140945;-77
2023/04/24 05:53:06;;;;;;;12.80;8.87;;;;;;;13.81;100.00;99458.95;5106678;56;1141037;-75
2023/04/24 05:58:14;;;;;;;11.60;8.23;;;;;;;13.79;100.00;99455.62;5106999;56;1141001;-76
2023/04/24 06:03:20;;;;;;;11.13;8.03;;;;;;;13.78;100.00;99455.28;5127032;56;1140868;-75
2023/04/24 06:08:26;;;;;;;11.80;7.87;;;;;;;13.78;100.00;99449.97;5119075;55;1141081;-76
2023/04/24 06:13:32;;;;;;;17.37;9.47;;;;;;;13.87;100.00;99451.65;5184959;55;1140973;-77
2023/04/24 06:18:46;;;;;;;12.95;8.40;;;;;;;13.95;100.00;99451.13;5086950;56;1140821;-77
2023/04/24 06:23:52;;;;;;;12.58;8.43;;;;;;;14.17;100.00;99446.98;5126535;56;1140941;-76
2023/04/24 06:28:59;;;;;;;10.23;8.50;;;;;;;14.37;100.00;99446.92;5107312;55;1140977;-76
2023/04/24 06:34:05;;;;;;;15.37;10.30;;;;;;;14.57;100.00;99435.45;5107608;55;1141004;-77
2023/04/24 06:39:12;;;;;;;13.53;9.60;;;;;;;14.86;100.00;99442.83;5126832;56;1142889;-78
2023/04/24 06:44:17;;;;;;;18.63;10.97;;;;;;;15.06;100.00;99448.07;5107202;55;1140699;-77
2023/04/24 06:49:23;;;;;;;14.40;10.73;;;;;;;15.10;100.00;99448.06;5107505;56;1143142;-75
2023/04/24 06:54:29;;;;;;;13.27;9.13;;;;;;;15.12;100.00;99438.56;5037602;57;1143039;-78
2023/04/24 06:59:35;;;;;;;9.27;6.67;;;;;;;15.31;100.00;99443.44;5107012;56;1140976;-78
2023/04/24 07:04:40;;;;;;;10.55;7.58;;;;;;;15.56;100.00;99438.00;5126885;55;1148560;-75
2023/04/24 07:09:46;;;;;;;10.88;7.25;;;;;;;15.65;100.00;99439.59;5062706;57;1140870;-77
2023/04/24 07:14:52;;;;;;;10.40;7.55;;;;;;;15.72;100.00;99441.38;4961009;57;1140881;-75
2023/04/24 07:19:58;;;;;;;11.90;8.00;;;;;;;15.77;100.00;99438.98;4961069;56;1140786;-78
2023/04/24 07:25:04;;;;;;;13.70;8.00;;;;;;;15.75;100.00;99446.83;4980388;56;1141094;-75
2023/04/24 07:30:10;;;;;;;12.00;7.92;;;;;;;15.76;100.00;99448.49;4960651;57;1141076;-75
2023/04/24 07:35:16;;;;;;;16.67;7.03;;;;;;;15.77;100.00;99444.82;4960764;57;1141049;-76
2023/04/24 07:40:23;;;;;;;10.82;7.42;;;;;;;15.81;100.00;99450.13;4980024;57;1140814;-76
2023/04/24 07:45:28;;;;;;;7.97;6.90;;;;;;;15.83;100.00;99448.95;4981791;57;1140844;-77
2023/04/24 07:50:34;;;;;;;8.00;6.60;;;;;;;15.85;100.00;99449.28;5042780;57;1139155;-76
2023/04/24 07:55:40;;;;;;;10.80;6.42;;;;;;;15.86;100.00;99446.44;5094617;56;1138971;-76
2023/04/24 08:00:45;;;;;;;9.08;7.05;;;;;;;16.04;100.00;99441.59;5102318;56;1140969;-78
2023/04/24 08:05:51;;;;;;;9.03;6.70;;;;;;;16.21;100.00;99434.77;5063719;56;1138939;-76
2023/04/24 08:10:57;;;;;;;14.37;7.63;;;;;;;16.29;100.00;99438.70;4868402;58;1138962;-78
2023/04/24 08:16:02;;;;;;;13.83;7.93;;;;;;;16.27;97.98;99441.56;5018321;57;1140698;-76
2023/04/24 08:21:08;;;;;;;10.27;6.67;;;;;;;16.31;98.70;99444.70;4999429;57;1138711;-77
2023/04/24 08:26:14;;;;;;;12.73;7.17;;;;;;;16.37;99.36;99436.77;5007381;57;1138841;-77
2023/04/24 08:31:20;;;;;;;11.03;7.83;;;;;;;16.46;98.27;99436.20;5029214;57;1139171;-77
2023/04/24 08:36:26;;;;;;;12.13;8.13;;;;;;;16.55;97.63;99440.43;5009197;57;1138973;-76
2023/04/24 08:41:32;;;;;;;13.90;6.40;;;;;;;16.56;97.00;99443.92;5009239;57;1139132;-78
2023/04/24 08:46:39;;;;;;;10.75;7.03;;;;;;;16.57;95.45;99444.25;5049568;56;1149018;-78
2023/04/24 08:51:47;;;;;;;8.78;6.25;;;;;;;16.64;98.01;99440.71;5102302;56;1138795;-79
2023/04/24 08:56:55;;;;;;;21.42;8.48;;;;;;;16.72;94.63;99440.61;5108207;56;1136656;-77
2023/04/24 09:02:03;;;;;;;11.67;5.90;;;;;;;16.72;95.79;99435.77;5075338;56;1138998;-76
2023/04/24 09:07:09;;;;;;;9.33;6.70;;;;;;;16.69;94.45;99438.80;5103082;56;1138772;-79
2023/04/24 09:12:15;;;;;;;9.90;6.65;;;;;;;16.68;94.97;99442.48;5042970;55;1136696;-70
2023/04/24 09:17:22;;;;;;;11.57;7.23;;;;;;;16.72;96.31;99435.77;5042740;57;1136928;-77
2023/04/24 09:22:32;;;;;;;8.20;6.53;;;;;;;16.78;94.95;99436.37;5062545;55;1138716;-77
2023/04/24 09:27:41;;;;;;;11.13;5.90;;;;;;;16.81;94.84;99445.33;5061898;57;1136645;-76
2023/04/24 09:32:46;;;;;;;11.13;5.80;;;;;;;16.77;94.41;99445.40;5037880;57;1138969;-79
2023/04/24 09:37:52;;;;;;;11.53;5.45;;;;;;;16.78;92.51;99453.23;5148087;56;1138675;-77
2023/04/24 09:43:00;;;;;;;7.28;6.35;;;;;;;16.74;92.46;99452.44;5043386;56;1138769;-79
2023/04/24 09:48:07;;;;;;;6.43;5.07;;;;;;;16.67;92.46;99450.17;5038984;57;1136762;-75
2023/04/24 09:53:13;;;;;;;8.13;6.03;;;;;;;16.64;92.47;99451.89;5063256;56;1136831;-75
2023/04/24 09:58:19;;;;;;;10.93;6.70;;;;;;;16.68;93.24;99444.65;5040992;56;1136775;-75
2023/04/24 10:03:33;;;;;;;16.60;7.10;;;;;;;16.71;93.06;99445.62;5173167;55;1138753;-75
2023/04/24 10:08:39;;;;;;;7.22;5.42;;;;;;;16.76;92.89;99435.73;5171314;55;1259121;-70
2023/04/24 10:13:45;;;;;;;6.52;5.66;;;;;;;16.82;92.22;99430.97;5139950;55;1136811;-73
2023/04/24 10:18:51;;;;;;;7.70;4.67;;;;;;;16.91;93.53;99426.37;5107910;55;1136904;-74
2023/04/24 10:23:59;;;;;;;6.10;4.93;;;;;;;17.08;93.10;99433.99;5044071;56;1136766;-73
2023/04/24 10:29:09;;;;;;;7.20;5.67;;;;;;;17.18;91.73;99433.68;5063279;56;1136771;-79
2023/04/24 10:34:16;;;;;;;9.40;6.28;;;;;;;17.32;90.41;99433.33;5043116;56;1136769;-80
2023/04/24 10:39:22;;;;;;;7.40;6.63;;;;;;;17.52;91.25;99440.55;5043416;56;1136587;-75
2023/04/24 10:44:36;;;;;;;11.07;7.07;;;;;;;17.64;91.35;99434.22;5130490;56;1136719;-76
2023/04/24 10:49:42;;;;;;;9.93;7.20;;;;;;;17.77;91.82;99441.02;5117501;55;1138896;-78
2023/04/24 10:54:50;;;;;;;10.65;7.35;;;;;;;17.88;90.46;99439.16;5117933;55;1136766;-76
2023/04/24 11:00:21;;;;;;;14.70;7.72;;;;;;;18.00;88.11;99444.84;5103624;55;1138955;-79
2023/04/24 11:06:05;;;;;;;14.73;6.57;;;;;;;17.92;86.90;99443.63;5043024;56;1138844;-78
2023/04/24 11:11:12;;;;;;;;;;;;;;;17.92;86.25;99443.63;5046874;56;1138884;-76
2023/04/24 11:16:35;;;;;;;9.20;6.10;;;;;;;17.84;84.57;99445.94;5102874;56;973969;-76
2023/04/24 11:22:03;;;;;;;7.58;6.00;;;;;;;17.85;86.04;99436.89;5134932;56;1134715;-78
2023/04/24 11:27:19;;;;;;;8.80;4.50;;;;;;;17.87;85.77;99449.55;5049172;57;1136836;-77
2023/04/24 11:32:43;;;;;;;6.13;4.97;;;;;;;17.91;82.27;99452.16;5043066;56;1136614;-76
2023/04/24 11:37:51;;;;;;;7.08;4.67;;;;;;;17.93;83.59;99454.64;5042854;55;1136667;-77
2023/04/24 11:42:59;;;;;;;11.67;5.97;;;;;;;18.12;82.20;99451.83;4966754;56;1136808;-76
2023/04/24 11:48:05;;;;;;;9.67;5.63;;;;;;;18.19;81.79;99466.91;5214094;55;1138621;-80
2023/04/24 11:53:11;;;;;;;12.53;4.87;;;;;;;18.14;82.69;99460.50;5193842;55;1136630;-77
2023/04/24 11:58:20;;;;;;;4.53;4.17;;;;;;;18.20;81.44;99465.05;5193803;55;1138642;-77
2023/04/24 12:03:25;;;;;;;7.50;6.07;;;;;;;18.18;81.35;99460.44;5207291;55;1136819;-79
2023/04/24 12:08:32;;;;;;;7.73;5.63;;;;;;;18.15;82.72;99452.79;5183406;55;1136850;-74
2023/04/24 12:13:38;;;;;;;7.80;5.23;;;;;;;17.98;83.22;99447.39;5183307;55;1136903;-75
2023/04/24 12:18:45;;;;;;;6.27;3.80;;;;;;;17.94;81.29;99460.31;5164070;55;1146483;-76
2023/04/24 12:23:51;;;;;;;7.08;4.12;;;;;;;17.89;79.83;99448.84;5204029;55;1136747;-74
2023/04/24 12:28:57;;;;;;;3.67;3.23;;;;;;;17.86;79.18;99447.09;5183540;55;1136719;-73
2023/04/24 12:34:03;;;;;;;2.57;2.37;;;;;;;17.84;78.61;99449.95;5155540;55;1136658;-74
2023/04/24 12:39:23;;;;;;;6.03;3.00;;;;;;;17.85;77.17;99454.28;5200161;55;1136885;-76
2023/04/24 12:44:37;;;;;;;5.00;3.00;;;;;;;17.88;77.97;99441.01;5165436;55;1136692;-76
2023/04/24 12:49:43;;;;;;;11.07;3.30;;;;;;;17.92;77.89;99442.28;5193642;55;1136921;-74
2023/04/24 12:54:49;;;;;;;4.17;2.30;;;;;;;17.89;76.73;99439.98;5163179;55;1138871;-74
2023/04/24 13:00:00;;;;;;;3.10;2.67;;;;;;;17.86;76.63;99449.76;5203851;54;1136958;-77
2023/04/24 13:05:06;;;;;;;9.30;6.27;;;;;;;17.78;76.87;99437.33;5131393;55;1136732;-76
2023/04/24 13:10:13;;;;;;;8.70;7.70;;;;;;;17.69;76.85;99429.64;5193189;55;1136695;-75
2023/04/24 13:15:18;;;;;;;9.97;4.83;;;;;;;17.71;78.15;99427.61;5168260;55;1136857;-74
2023/04/24 13:20:24;;;;;;;20.23;12.07;;;;;;;17.69;77.56;99402.39;5107679;56;1136715;-74
2023/04/24 13:25:31;;;;;;;10.27;3.13;;;;;;;17.70;78.31;99389.84;5107307;56;1140957;-74
2023/04/24 13:30:36;;;;;;;7.53;1.90;;;;;;;17.76;77.60;99392.56;5107464;56;1138978;-76
2023/04/24 13:35:43;;;;;;;4.20;2.03;;;;;;;17.87;77.06;99388.56;5166385;55;1136554;-77
2023/04/24 13:40:48;;;;;;;12.53;2.87;;;;;;;17.94;76.34;99388.09;5145280;55;1136724;-76
2023/04/24 13:45:54;;;;;;;7.00;1.87;;;;;;;18.04;76.80;99387.73;5193340;55;1138963;-74
2023/04/24 13:51:00;;;;;;;8.70;2.30;;;;;;;18.16;75.35;99399.58;5209702;55;1136852;-75
2023/04/24 13:56:06;;;;;;;2.67;1.70;;;;;;;18.19;74.08;99391.97;5170124;55;1136854;-74
2023/04/24 14:01:11;;;;;;;1.70;1.43;;;;;;;18.17;75.94;99399.91;5107310;55;1136724;-72
2023/04/24 14:06:17;;;;;;;1.20;1.20;;;;;;;18.10;73.69;99395.00;5150554;55;1136680;-74
2023/04/24 14:11:22;;;;;;;2.10;1.40;;;;;;;17.99;73.20;99399.55;5188330;55;1136713;-72
2023/04/24 14:16:30;;;;;;;3.23;2.30;;;;;;;17.88;75.28;99398.20;5153256;55;1136687;-74
2023/04/24 14:21:35;;;;;;;3.70;1.73;;;;;;;17.75;76.13;99398.92;5122425;55;1136867;-78
2023/04/24 14:26:41;;;;;;;5.80;2.97;;;;;;;17.62;76.49;99404.13;5127229;56;1136824;-78
2023/04/24 14:31:46;;;;;;;5.53;3.37;;;;;;;17.52;77.62;99405.80;5109369;55;1136834;-76
2023/04/24 14:36:53;;;;;;;3.42;1.37;;;;;;;17.49;78.61;99402.67;5123827;55;1136784;-80
2023/04/24 14:41:58;;;;;;;1.67;1.57;;;;;;;17.46;78.18;99400.37;5139788;55;1136701;-75
2023/04/24 14:47:04;;;;;;;3.83;1.42;;;;;;;17.38;79.57;99395.98;5116485;55;1136599;-78
2023/04/24 14:52:10;;;;;;;2.62;1.62;;;;;;;17.25;81.51;99405.20;5110623;55;1136529;-80
2023/04/24 14:57:16;;;;;;;3.33;1.93;;;;;;;17.09;82.75;99412.11;5131615;55;1136810;-76
2023/04/24 15:02:21;;;;;;;5.63;2.90;;;;;;;16.91;82.88;99408.50;5131674;55;1136768;-78
2023/04/24 15:07:27;;;;;;;7.83;2.77;;;;;;;16.76;83.69;99400.52;5121250;55;1136740;-75
2023/04/24 15:12:33;;;;;;;3.50;1.87;;;;;;;16.72;84.51;99401.89;5118568;56;1136613;-75
2023/04/24 15:17:38;;;;;;;2.13;1.00;;;;;;;16.67;84.85;99403.45;5095495;56;1136804;-76
2023/04/24 15:22:44;;;;;;;2.00;1.17;;;;;;;16.59;82.29;99404.36;5065431;55;1136609;-75
2023/04/24 15:27:50;;;;;;;5.90;2.33;;;;;;;16.56;78.91;99412.73;5048658;57;1136717;-76
2023/04/24 15:32:55;;;;;;;2.92;1.12;;;;;;;16.53;78.85;99416.59;5173763;55;1136719;-77
2023/04/24 15:38:02;;;;;;;3.25;0.68;;;;;;;16.51;76.15;99413.27;5151544;55;1136645;-76
2023/04/24 15:43:07;;;;;;;1.20;1.10;;;;;;;16.43;75.59;99414.70;5107397;56;1136723;-79
2023/04/24 15:48:13;;;;;;;3.15;1.70;;;;;;;16.40;75.55;99422.24;5101624;56;1136797;-77
2023/04/24 15:53:21;;;;;;;1.43;1.30;;;;;;;16.34;75.92;99421.16;5087367;55;1136727;-77
2023/04/24 15:58:26;;;;;;;4.70;1.10;;;;;;;16.24;75.37;99436.58;5107409;55;1136696;-79
2023/04/24 16:03:31;;;;;;;2.30;1.50;;;;;;;16.12;76.34;99433.53;5087322;55;1136817;-77
2023/04/24 16:08:37;;;;;;;11.13;2.40;;;;;;;16.08;77.39;99424.73;5155267;55;1136925;-77
2023/04/24 16:13:42;;;;;;;4.70;1.12;;;;;;;16.06;76.32;99416.07;5194021;55;1138843;-79
2023/04/24 16:18:48;;;;;;;1.97;1.57;;;;;;;15.97;76.17;99419.33;5193891;55;1136582;-77
2023/04/24 16:23:54;;;;;;;7.65;2.47;;;;;;;15.92;77.03;99420.88;5193848;55;1136743;-76
2023/04/24 16:28:59;;;;;;;9.75;3.15;;;;;;;15.89;77.24;99424.72;5194236;55;1136704;-78
2023/04/24 16:34:05;;;;;;;2.87;1.20;;;;;;;15.82;77.43;99417.95;5214348;55;1139505;-78
2023/04/24 16:39:11;;;;;;;5.70;2.03;;;;;;;15.75;77.48;99408.17;5151397;55;1136969;-78
2023/04/24 16:44:18;;;;;;;4.17;2.90;;;;;;;15.67;78.00;99407.75;5107704;55;1136878;-77
2023/04/24 16:49:23;;;;;;;5.90;2.70;;;;;;;15.63;79.04;99409.61;5214607;55;1136652;-78
2023/04/24 16:54:34;;;;;;;3.50;2.30;;;;;;;15.60;80.23;99413.96;5193949;55;1136718;-74
2023/04/24 16:59:39;;;;;;;5.83;2.67;;;;;;;15.52;81.60;99412.17;5153535;55;1136625;-76
2023/04/24 17:04:46;;;;;;;23.00;11.87;;;;;;;15.47;83.51;99413.19;5108236;55;1136791;-79
2023/04/24 17:09:52;;;;;;;8.27;3.80;;;;;;;15.44;83.54;99414.87;5213731;55;1140893;-75
2023/04/24 17:14:58;;;;;;;6.28;2.75;;;;;;;15.41;83.37;99410.75;5172068;55;1136888;-75
2023/04/24 17:20:04;;;;;;;5.67;3.27;;;;;;;15.32;84.17;99409.13;5133204;55;1136921;-76
2023/04/24 17:25:10;;;;;;;3.23;2.37;;;;;;;15.27;85.62;99408.02;5203440;55;1136750;-78
2023/04/24 17:30:16;;;;;;;6.77;2.60;;;;;;;15.16;86.05;99409.23;5183402;55;1136646;-80
2023/04/24 17:35:22;;;;;;;10.80;5.00;;;;;;;15.12;87.14;99404.75;5183227;55;1136675;-76
2023/04/24 17:40:27;;;;;;;7.20;5.77;;;;;;;15.09;87.89;99411.78;5138448;55;1139038;-76
2023/04/24 17:45:33;;;;;;;6.30;2.77;;;;;;;15.04;89.64;99421.28;5118235;55;1256684;-76
2023/04/24 17:50:39;;;;;;;3.63;3.03;;;;;;;14.97;90.43;99419.01;5183499;55;1136581;-74
2023/04/24 17:55:47;;;;;;;8.13;3.00;;;;;;;14.90;91.15;99426.84;5183480;55;1136759;-74
2023/04/24 18:00:53;;;;;;;8.77;3.30;;;;;;;14.83;93.59;99432.52;5141954;55;1136704;-78
2023/04/24 18:05:59;;;;;;;3.95;2.85;;;;;;;14.80;93.65;99436.87;5119543;55;1136687;-74
2023/04/24 18:11:04;;;;;;;2.23;2.00;;;;;;;14.70;94.93;99445.55;5166196;55;1137631;-75
2023/04/24 18:16:10;;;;;;;4.87;1.83;;;;;;;14.60;93.46;99450.24;5170824;55;1136673;-74
2023/04/24 18:21:15;;;;;;;3.97;1.80;;;;;;;14.46;91.32;99457.10;5154723;54;1136856;-79
2023/04/24 18:26:21;;;;;;;4.87;1.77;;;;;;;14.29;86.15;99460.25;5184275;55;1136837;-77
2023/04/24 18:31:27;;;;;;;3.37;1.87;;;;;;;14.18;87.30;99473.91;5204770;55;1136506;-78
2023/04/24 18:36:32;;;;;;;3.27;2.10;;;;;;;14.07;87.65;99473.72;5183422;55;1136802;-80
2023/04/24 18:41:38;;;;;;;64.53;26.43;;;;;;;14.00;88.44;99479.89;5183814;55;1136711;-79
2023/04/24 18:46:44;;;;;;;14.83;6.70;;;;;;;13.93;88.96;99487.68;5183494;55;1144440;-78
2023/04/24 18:51:50;;;;;;;11.40;4.72;;;;;;;13.95;89.69;99495.49;5197429;55;1138888;-77
2023/04/24 18:56:56;;;;;;;4.87;3.12;;;;;;;13.92;90.41;99503.80;5169435;55;1138641;-78
2023/04/24 19:02:02;;;;;;;6.00;2.77;;;;;;;13.87;91.69;99498.99;5131674;55;1136632;-75
2023/04/24 19:07:07;;;;;;;12.73;4.08;;;;;;;13.83;93.09;99507.45;5144896;55;1136637;-78
2023/04/24 19:12:13;;;;;;;2.70;1.67;;;;;;;13.75;93.85;99504.80;5138010;55;1138821;-79
2023/04/24 19:17:23;;;;;;;7.43;4.00;;;;;;;13.73;94.90;99500.48;5126422;55;1136836;-79
2023/04/24 19:22:27;;;;;;;3.57;1.80;;;;;;;13.70;95.42;99498.64;5113075;56;1136666;-78
2023/04/24 19:27:33;;;;;;;4.93;2.23;;;;;;;13.69;96.68;99496.97;5109016;55;1136828;-79
2023/04/24 19:32:38;;;;;;;2.30;1.70;;;;;;;13.72;97.29;99493.99;5100287;55;1136871;-78
2023/04/24 19:37:44;;;;;;;5.30;2.72;;;;;;;13.73;96.89;99495.16;5097408;56;1136610;-79
2023/04/24 19:42:50;;;;;;;10.10;4.43;;;;;;;13.70;97.13;99494.66;5032392;57;1181735;-78
2023/04/24 19:47:55;;;;;;;4.97;2.70;;;;;;;13.69;98.13;99495.64;5001028;57;1138711;-78
2023/04/24 19:53:01;;;;;;;2.17;1.98;;;;;;;13.64;98.74;99497.95;5013165;57;1136676;-78
2023/04/24 19:58:07;;;;;;;2.43;2.20;;;;;;;13.58;99.42;99500.78;5117600;56;1136815;-79
2023/04/24 20:03:13;;;;;;;4.20;2.57;;;;;;;13.53;99.77;99501.76;5013509;57;1136634;-78
2023/04/24 20:08:19;;;;;;;7.37;3.83;;;;;;;13.49;100.00;99492.94;4990951;57;1136758;-79
2023/04/24 20:13:30;;;;;;;6.77;2.80;;;;;;;13.46;100.00;99493.26;5186014;55;1138708;-79
2023/04/24 20:18:36;;;;;;;6.00;3.63;;;;;;;13.41;100.00;99495.59;5103235;55;1138748;-79
2023/04/24 20:23:41;;;;;;;5.78;2.80;;;;;;;13.34;100.00;99495.39;5092366;56;1138678;-79
2023/04/24 20:28:47;;;;;;;8.07;2.87;;;;;;;13.32;100.00;99493.39;5112118;56;1138855;-78
2023/04/24 20:33:53;;;;;;;8.40;3.30;;;;;;;13.26;100.00;99497.54;5072338;56;1142006;-79
2023/04/24 20:38:59;;;;;;;4.27;2.90;;;;;;;13.22;100.00;99496.19;5092382;56;1138678;-79
2023/04/24 20:44:05;;;;;;;10.28;3.85;;;;;;;13.26;100.00;99500.20;5112224;56;1138972;-79
2023/04/24 20:49:11;;;;;;;6.60;3.93;;;;;;;13.28;100.00;99500.04;5178049;55;1140894;-79
2023/04/24 20:54:16;;;;;;;5.77;4.57;;;;;;;13.29;100.00;99501.70;5178655;55;1138710;-79
2023/04/24 20:59:22;;;;;;;8.17;4.23;;;;;;;13.22;100.00;99498.84;5198978;55;1138580;-78
2023/04/24 21:04:27;;;;;;;10.30;4.33;;;;;;;13.21;100.00;99506.97;5178539;55;1138749;-78
2023/04/24 21:09:33;;;;;;;7.87;4.57;;;;;;;13.13;100.00;99506.42;5177232;55;1140856;-78
2023/04/24 21:14:39;;;;;;;7.43;4.67;;;;;;;13.06;100.00;99500.57;5138871;55;1138803;-79
2023/04/24 21:19:44;;;;;;;4.60;4.07;;;;;;;13.02;100.00;99503.53;5107441;56;1139090;-78
2023/04/24 21:24:50;;;;;;;7.53;3.70;;;;;;;12.97;100.00;99509.84;5088006;56;1138850;-78
2023/04/24 21:29:56;;;;;;;6.03;3.80;;;;;;;12.92;100.00;99511.30;5088372;56;1138839;-79
2023/04/24 21:35:01;;;;;;;7.00;3.52;;;;;;;12.89;100.00;99512.93;5108791;56;1138895;-78
2023/04/24 21:40:10;;;;;;;15.75;4.22;;;;;;;12.84;100.00;99511.23;5088716;56;1139119;-79
2023/04/24 21:45:15;;;;;;;5.63;3.17;;;;;;;12.78;100.00;99506.58;5105995;55;1141132;-78
2023/04/24 21:50:21;;;;;;;4.53;3.10;;;;;;;12.73;100.00;99511.52;5195671;55;1138814;-78
2023/04/24 21:55:27;;;;;;;4.03;2.80;;;;;;;12.62;100.00;99513.45;5175371;55;1138917;-78
2023/04/24 22:00:33;;;;;;;3.47;3.03;;;;;;;12.39;100.00;99509.64;5174372;55;1138778;-78
2023/04/24 22:05:38;;;;;;;5.83;2.47;;;;;;;12.39;100.00;99509.64;5158281;55;1138906;-79
2023/04/24 22:10:44;;;;;;;3.33;2.90;;;;;;;12.35;100.00;99522.06;5106743;56;1139128;-78
2023/04/24 22:15:51;;;;;;;12.60;4.83;;;;;;;12.22;99.78;99519.81;4977652;57;1139027;-78
2023/04/24 22:20:57;;;;;;;6.03;2.77;;;;;;;12.11;99.53;99521.36;5003686;57;1138867;-78
2023/04/24 22:26:03;;;;;;;4.76;2.48;;;;;;;12.01;99.89;99528.08;5009967;57;1136690;-79
2023/04/24 22:31:08;;;;;;;5.12;2.75;;;;;;;11.85;99.09;99521.30;4990169;57;1136905;-77
2023/04/24 22:36:14;;;;;;;4.47;2.80;;;;;;;11.76;98.90;99529.67;4990263;57;1136768;-76
2023/04/24 22:41:21;;;;;;;3.63;2.80;;;;;;;11.66;98.99;99528.86;4987245;56;1136816;-77
2023/04/24 22:46:26;;;;;;;5.13;2.33;;;;;;;11.56;99.24;99526.78;4957239;57;1136811;-77
2023/04/24 22:51:35;;;;;;;2.73;2.53;;;;;;;11.48;99.22;99534.13;4860315;58;1136930;-77
2023/04/24 22:56:41;;;;;;;2.85;2.52;;;;;;;11.41;99.77;99534.39;4990022;57;1136845;-76
2023/04/24 23:01:46;;;;;;;5.23;2.40;;;;;;;11.20;100.00;99541.25;5057377;57;1136847;-76
2023/04/24 23:06:52;;;;;;;3.50;2.47;;;;;;;11.20;100.00;99541.25;5047194;56;1138902;-77
2023/04/24 23:11:58;;;;;;;4.47;1.80;;;;;;;11.15;99.52;99545.34;4933751;57;1138863;-77